Main page
METAR-TAF:

METAR-TAF

Airports :

Luang Prabang International Airport

Luang Prabang, Laos

latitude: 19-53N, longitude: 102-08E, elevation: 305 m

Current weather observation

The report was made 56 minutes ago, at 00:00 UTC
Wind 2 kt from the North
Temperature 22°C
Humidity 100%
Pressure 1008 hPa
Visibility 10 km or more
Few clouds at a height of 2000 ft
Few clouds at a height of 6000 ft

METAR: VLLB 250000Z 36002KT 9999 FEW020 FEW060 22/22 Q1008 NOSIG

Time: 07:56 (00:56 UTC)

Forecast

The report was made 1 hour and 56 minutes ago, at 23:00 UTC
Forecast valid from 25 at 00 UTC to 25 at 24 UTC
Wind 4 kt from the West
Visibility 10 km or more
Few clouds at a height of 2000 ft
Few clouds at a height of 6000 ft

TAF: VLLB 242300Z 2500/2524 27004KT 9999 FEW020 FEW060

Weather observations and forecasts of more than 4000 airports (METAR and TAF reports).

The available stations are represented by yellow and red dots on the map.

Hover mouse over dot to see the name of the station.

Then click to see weather observations and forecasts.

To change the map : click on the green buttons with a black cross to zoom in, on the green button with a dash to zoom out, or on the green arrows for adjacent maps.


METAR-TAF: